Time;durP1;ratioP1;P1;durP2;ratioP2;P2;SDS_P1;SDS_P2;PMS_P1;PMS_P2;Temp;Humidity;BMP_temperature;BMP_pressure;BME280_temperature;BME280_humidity;BME280_pressure;Samples;Min_cycle;Max_cycle;Signal;HPM_P1;HPM_P2
2022/09/17 00:02:31;;;;;;;3.95;1.30;;;;;;;10.96;58.02;99431.94;1655476;85;21128;-77
2022/09/17 00:05:16;;;;;;;2.98;1.17;;;;;;;10.98;58.07;99427.55;1642367;85;21113;-77
2022/09/17 00:08:02;;;;;;;7.97;1.62;;;;;;;11.00;58.09;99424.91;1652258;85;21120;-77
2022/09/17 00:10:47;;;;;;;4.42;0.90;;;;;;;11.01;58.19;99424.00;1655898;85;21269;-77
2022/09/17 00:13:32;;;;;;;5.25;1.35;;;;;;;11.03;58.26;99421.76;1660611;85;21060;-77
2022/09/17 00:16:28;;;;;;;4.20;1.15;;;;;;;11.05;58.32;99428.17;1662227;85;21084;-77
2022/09/17 00:19:18;;;;;;;5.10;1.20;;;;;;;11.08;58.40;99426.77;1652624;85;21156;-77
2022/09/17 00:22:03;;;;;;;6.40;1.27;;;;;;;11.09;58.46;99429.30;1651151;85;21271;-77
2022/09/17 00:24:48;;;;;;;4.35;1.25;;;;;;;11.11;58.54;99423.61;1661756;84;21069;-77
2022/09/17 00:27:33;;;;;;;4.05;1.10;;;;;;;11.11;58.62;99424.91;1657724;85;21171;-77
2022/09/17 00:30:19;;;;;;;1.65;1.05;;;;;;;11.11;58.63;99422.77;1640051;85;21087;-77
2022/09/17 00:33:04;;;;;;;5.83;1.22;;;;;;;11.09;58.75;99425.41;1640874;85;21089;-77
2022/09/17 00:36:01;;;;;;;5.40;1.10;;;;;;;11.07;58.73;99424.63;1653639;85;21339;-77
2022/09/17 00:38:55;;;;;;;4.87;1.40;;;;;;;11.03;58.83;99424.34;1641335;85;21080;-77
2022/09/17 00:41:40;;;;;;;3.62;0.78;;;;;;;11.00;58.93;99425.75;1623749;86;21057;-77
2022/09/17 00:44:53;;;;;;;7.70;1.17;;;;;;;10.99;58.91;99420.63;1664470;85;21144;-77
2022/09/17 00:47:45;;;;;;;4.85;1.30;;;;;;;10.93;58.99;99429.45;1642660;85;21072;-77
2022/09/17 00:50:39;;;;;;;2.92;0.90;;;;;;;10.92;59.08;99428.61;1655590;85;20928;-77
2022/09/17 00:53:26;;;;;;;2.92;1.12;;;;;;;10.89;59.08;99434.38;1652378;84;21445;-77
2022/09/17 00:56:19;;;;;;;4.22;1.20;;;;;;;10.88;59.15;99435.28;1656499;85;20977;-77
2022/09/17 00:59:05;;;;;;;2.75;0.80;;;;;;;10.85;59.27;99436.23;1674969;85;20961;-77
2022/09/17 01:01:50;;;;;;;4.60;1.10;;;;;;;10.89;59.33;99425.33;1653434;85;20980;-77
2022/09/17 01:04:34;;;;;;;5.08;1.10;;;;;;;10.90;59.38;99433.48;1642815;85;21135;-77
2022/09/17 01:07:49;;;;;;;2.15;0.88;;;;;;;10.92;59.44;99439.41;1641128;85;21064;-77
2022/09/17 01:11:01;;;;;;;2.65;0.82;;;;;;;10.92;59.47;99433.78;1645533;85;21687;-77
2022/09/17 01:14:10;;;;;;;2.67;1.00;;;;;;;10.96;59.56;99434.52;1628077;85;21051;-77
2022/09/17 01:17:19;;;;;;;6.45;1.05;;;;;;;11.01;59.58;99429.18;1639147;85;20988;-77
2022/09/17 01:20:40;;;;;;;2.50;0.75;;;;;;;11.03;59.64;99430.81;1629168;85;21100;-77
2022/09/17 01:23:52;;;;;;;4.03;1.10;;;;;;;11.07;59.69;99436.27;1654900;85;21075;-77
2022/09/17 01:27:02;;;;;;;4.47;1.00;;;;;;;11.09;59.74;99438.34;1649490;85;21052;-77
2022/09/17 01:30:22;;;;;;;5.08;1.05;;;;;;;11.10;59.80;99432.27;1636298;85;21071;-76
2022/09/17 01:33:37;;;;;;;3.27;1.00;;;;;;;11.13;59.87;99429.58;1631287;85;21083;-77
2022/09/17 01:37:05;;;;;;;2.15;0.75;;;;;;;11.15;59.91;99434.69;1639654;85;21496;-77
2022/09/17 01:39:59;;;;;;;3.42;0.78;;;;;;;11.18;59.96;99438.01;1632839;85;21079;-77
2022/09/17 01:43:05;;;;;;;7.37;1.10;;;;;;;11.20;60.11;99437.95;1632089;84;21071;-77
2022/09/17 01:45:54;;;;;;;1.75;0.62;;;;;;;11.19;60.08;99436.27;1663264;85;22381;-77
2022/09/17 01:48:46;;;;;;;1.37;0.60;;;;;;;11.20;60.13;99437.50;1644592;85;21039;-77
2022/09/17 01:51:38;;;;;;;2.75;0.60;;;;;;;11.19;60.26;99440.14;1644014;85;21074;-77
2022/09/17 01:54:29;;;;;;;2.08;0.70;;;;;;;11.15;60.37;99436.83;1650783;85;21035;-77
2022/09/17 01:57:20;;;;;;;2.47;0.60;;;;;;;11.15;60.46;99440.70;1647981;85;21041;-77
2022/09/17 02:00:14;;;;;;;1.87;0.78;;;;;;;11.19;60.53;99441.44;1663034;85;21048;-77
2022/09/17 02:03:16;;;;;;;5.17;0.93;;;;;;;11.22;60.64;99436.16;1637324;83;20945;-77
2022/09/17 02:06:15;;;;;;;3.98;0.90;;;;;;;11.24;60.69;99445.55;1635582;85;20989;-77
2022/09/17 02:09:22;;;;;;;2.65;0.70;;;;;;;11.27;60.78;99454.94;1642183;84;21414;-77
2022/09/17 02:12:11;;;;;;;5.80;0.90;;;;;;;11.30;60.84;99448.35;1669140;84;20969;-77
2022/09/17 02:15:00;;;;;;;2.85;0.90;;;;;;;11.31;60.95;99453.92;1670480;84;20961;-77
2022/09/17 02:17:56;;;;;;;1.00;0.57;;;;;;;11.34;61.04;99449.08;1666182;84;20984;-77
2022/09/17 02:20:46;;;;;;;2.27;0.42;;;;;;;11.37;61.16;99453.70;1668377;84;21457;-77
2022/09/17 02:23:35;;;;;;;5.00;0.82;;;;;;;11.40;61.20;99455.33;1658482;84;20980;-77
2022/09/17 02:26:20;;;;;;;1.33;0.60;;;;;;;11.42;61.29;99443.17;1663033;84;21479;-77
2022/09/17 02:29:13;;;;;;;1.80;0.72;;;;;;;11.44;61.33;99446.06;1672709;84;21433;-77
2022/09/17 02:31:58;;;;;;;2.08;0.53;;;;;;;11.50;61.39;99446.28;1668489;84;21358;-77
2022/09/17 02:34:43;;;;;;;3.75;0.50;;;;;;;11.52;61.44;99439.30;1675257;84;20971;-77
2022/09/17 02:37:28;;;;;;;2.10;0.53;;;;;;;11.54;61.52;99440.08;1656805;84;21414;-77
2022/09/17 02:40:17;;;;;;;3.12;0.78;;;;;;;11.58;61.58;99443.78;1635567;86;21417;-77
2022/09/17 02:43:28;;;;;;;4.40;0.72;;;;;;;11.59;61.67;99449.36;1656550;84;21132;-77
2022/09/17 02:46:46;;;;;;;2.72;0.70;;;;;;;11.58;61.69;99451.55;1662858;84;21917;-77
2022/09/17 02:49:54;;;;;;;1.77;0.65;;;;;;;11.59;61.77;99448.52;1655296;84;21108;-77
2022/09/17 02:53:13;;;;;;;3.52;0.72;;;;;;;11.59;61.92;99451.10;1661624;84;21143;-78
2022/09/17 02:56:22;;;;;;;3.65;0.72;;;;;;;11.63;62.05;99457.84;1669899;84;21091;-78
2022/09/17 02:59:28;;;;;;;4.28;0.72;;;;;;;11.65;62.13;99454.75;1662933;84;21108;-78
2022/09/17 03:02:42;;;;;;;3.00;0.70;;;;;;;11.67;62.24;99451.65;1640055;84;863468;-78
2022/09/17 03:05:28;;;;;;;2.10;0.65;;;;;;;11.71;62.32;99461.44;1621208;86;21089;-78
2022/09/17 03:08:15;;;;;;;;;;;;;;;11.71;62.38;99462.28;1624775;86;21037;-78
2022/09/17 03:11:00;;;;;;;2.20;0.70;;;;;;;11.71;63.01;99467.45;1628908;86;20200;-78
2022/09/17 03:13:45;;;;;;;3.27;0.70;;;;;;;11.70;62.55;99468.36;1628139;88;21014;-78
2022/09/17 03:16:30;;;;;;;1.90;0.80;;;;;;;11.70;62.62;99469.66;1622598;87;21098;-78
2022/09/17 03:19:15;;;;;;;1.85;0.47;;;;;;;11.68;62.71;99462.85;1606034;88;21530;-78
2022/09/17 03:22:00;;;;;;;3.62;0.90;;;;;;;11.65;62.77;99462.97;1621165;87;21593;-78
2022/09/17 03:24:46;;;;;;;2.70;0.60;;;;;;;11.65;62.83;99466.85;1623940;87;21126;-78
2022/09/17 03:27:31;;;;;;;4.42;0.90;;;;;;;11.65;62.92;99463.81;1603295;87;21435;-78
2022/09/17 03:30:16;;;;;;;3.05;1.00;;;;;;;11.66;63.00;99473.27;1587919;88;21597;-78
2022/09/17 03:33:01;;;;;;;1.85;0.70;;;;;;;11.69;63.04;99469.27;1594541;88;21117;-78
2022/09/17 03:35:47;;;;;;;2.75;0.70;;;;;;;11.71;63.07;99473.94;1596142;88;21070;-78
2022/09/17 03:38:33;;;;;;;2.52;0.60;;;;;;;11.73;63.15;99467.40;1596303;88;21538;-78
2022/09/17 03:41:18;;;;;;;1.05;0.55;;;;;;;11.71;63.20;99466.62;1587046;88;21592;-78
2022/09/17 03:44:03;;;;;;;5.10;0.85;;;;;;;11.70;63.31;99467.06;1581389;88;21429;-78
2022/09/17 03:46:48;;;;;;;3.60;0.85;;;;;;;11.71;63.39;99471.34;1603036;88;20939;-78
2022/09/17 03:49:33;;;;;;;0.72;0.60;;;;;;;11.71;63.41;99462.28;1588329;88;20927;-78
2022/09/17 03:52:18;;;;;;;4.53;0.90;;;;;;;11.69;63.49;99473.59;1605233;87;20935;-78
2022/09/17 03:55:04;;;;;;;1.50;0.90;;;;;;;11.69;63.61;99467.13;1625228;88;21074;-78
2022/09/17 03:57:50;;;;;;;4.25;1.07;;;;;;;11.68;63.64;99464.14;1628386;87;21099;-77
2022/09/17 04:00:38;;;;;;;5.70;1.10;;;;;;;11.70;63.71;99468.36;1617600;87;21107;-77
2022/09/17 04:03:25;;;;;;;5.47;1.30;;;;;;;11.70;63.72;99470.95;1594630;88;21067;-77
2022/09/17 04:06:10;;;;;;;2.33;1.05;;;;;;;11.68;63.80;99474.05;1630233;87;20994;-77
2022/09/17 04:08:55;;;;;;;1.47;1.37;;;;;;;11.68;63.87;99475.34;1625025;88;20939;-78
2022/09/17 04:11:40;;;;;;;5.03;1.57;;;;;;;11.67;63.94;99471.07;1599660;86;20983;-78
2022/09/17 04:14:25;;;;;;;4.28;1.47;;;;;;;11.69;63.97;99472.30;1640251;86;20939;-78
2022/09/17 04:17:11;;;;;;;4.22;1.45;;;;;;;11.67;64.05;99480.13;1613669;86;20949;-78
2022/09/17 04:19:55;;;;;;;2.12;1.00;;;;;;;11.68;64.12;99477.09;1614886;86;21380;-78
2022/09/17 04:22:40;;;;;;;2.72;0.90;;;;;;;11.70;64.19;99476.58;1647342;86;20990;-78
2022/09/17 04:25:25;;;;;;;2.65;0.90;;;;;;;11.70;64.18;99471.41;1616941;86;21133;-78
2022/09/17 04:28:11;;;;;;;1.15;0.82;;;;;;;11.69;64.30;99473.15;1608893;86;21093;-77
2022/09/17 04:30:56;;;;;;;1.35;0.82;;;;;;;11.70;64.28;99470.11;1606348;86;21074;-77
2022/09/17 04:33:41;;;;;;;3.43;1.10;;;;;;;11.70;64.37;99478.72;1602436;86;21507;-77
2022/09/17 04:36:27;;;;;;;2.08;0.80;;;;;;;11.69;64.45;99479.62;1608759;86;21109;-77
2022/09/17 04:39:13;;;;;;;2.85;1.10;;;;;;;11.67;64.52;99480.59;1616788;86;21098;-77
2022/09/17 04:41:58;;;;;;;3.90;0.90;;;;;;;11.66;64.52;99474.56;1613864;86;21134;-77
2022/09/17 04:44:43;;;;;;;2.30;0.98;;;;;;;11.63;64.60;99475.97;1647041;86;21042;-77
2022/09/17 04:47:28;;;;;;;0.98;0.70;;;;;;;11.61;64.80;99477.78;1629111;86;21059;-77
2022/09/17 04:50:14;;;;;;;2.17;1.10;;;;;;;11.58;64.75;99476.15;1649322;86;21146;-77
2022/09/17 04:52:58;;;;;;;2.15;0.90;;;;;;;11.58;64.87;99473.56;1643683;86;21063;-77
2022/09/17 04:55:44;;;;;;;3.47;0.80;;;;;;;11.59;64.97;99480.88;1613997;86;21137;-77
2022/09/17 04:58:30;;;;;;;1.92;1.10;;;;;;;11.58;64.94;99481.78;1635280;86;21113;-77
2022/09/17 05:01:17;;;;;;;0.98;0.70;;;;;;;11.58;64.98;99488.25;1620238;86;21090;-77
2022/09/17 05:06:39;;;;;;;1.37;1.07;;;;;;;11.65;65.06;99503.95;1832347;77;22134;-77
2022/09/17 05:09:24;;;;;;;1.98;0.80;;;;;;;11.62;65.28;99505.36;1811996;78;21000;-77
2022/09/17 05:12:09;;;;;;;1.62;0.70;;;;;;;11.61;65.22;99511.44;1762941;80;21032;-78
2022/09/17 05:14:54;;;;;;;2.77;0.78;;;;;;;11.65;65.31;99510.88;1792886;79;21240;-78
2022/09/17 05:17:39;;;;;;;0.62;0.57;;;;;;;11.66;65.36;99506.92;1775483;79;21008;-78
2022/09/17 05:20:24;;;;;;;3.15;0.80;;;;;;;11.73;65.50;99508.38;1784753;78;20973;-78
2022/09/17 05:23:10;;;;;;;1.72;0.72;;;;;;;11.80;65.51;99508.57;1802613;79;21465;-78
2022/09/17 05:26:00;;;;;;;0.98;0.62;;;;;;;11.83;65.52;99507.16;1782886;79;20945;-78
2022/09/17 05:28:45;;;;;;;0.98;0.70;;;;;;;11.85;65.64;99507.10;1807280;78;21411;-78
2022/09/17 05:31:30;;;;;;;1.05;0.70;;;;;;;11.87;65.60;99508.73;1810050;79;20862;-78
2022/09/17 05:34:14;;;;;;;1.17;0.60;;;;;;;11.93;65.62;99512.83;1812098;78;21413;-78
2022/09/17 05:36:59;;;;;;;1.17;0.75;;;;;;;11.94;65.62;99514.52;1790919;79;20898;-78
2022/09/17 05:39:45;;;;;;;2.05;0.60;;;;;;;11.95;65.69;99512.77;1776550;79;21514;-78
2022/09/17 05:42:30;;;;;;;1.05;0.70;;;;;;;11.93;65.76;99520.60;1768425;79;21082;-78
2022/09/17 05:45:15;;;;;;;0.90;0.90;;;;;;;11.93;65.80;99514.13;1751809;79;21781;-78
2022/09/17 05:48:02;;;;;;;1.40;0.72;;;;;;;11.93;65.83;99520.16;1786164;79;21469;-78
2022/09/17 05:50:47;;;;;;;2.70;0.72;;;;;;;11.96;65.89;99516.56;1746076;79;21299;-78
2022/09/17 05:53:32;;;;;;;1.37;0.90;;;;;;;11.98;65.83;99517.34;1736122;81;21426;-78
2022/09/17 05:56:18;;;;;;;2.90;0.78;;;;;;;12.00;65.91;99517.29;1764705;79;21557;-78
2022/09/17 05:59:03;;;;;;;1.80;0.85;;;;;;;11.99;65.95;99529.85;1752486;79;21072;-78
2022/09/17 06:01:49;;;;;;;1.37;0.78;;;;;;;12.01;66.05;99531.93;1780951;78;21557;-78
2022/09/17 06:04:34;;;;;;;0.80;0.70;;;;;;;11.99;66.08;99538.92;1780097;79;21009;-78
2022/09/17 06:07:19;;;;;;;2.35;0.90;;;;;;;11.98;66.09;99537.23;1751159;78;21081;-78
2022/09/17 06:10:07;;;;;;;1.15;0.80;;;;;;;11.98;66.17;99541.96;1768235;80;20978;-78
2022/09/17 06:12:59;;;;;;;1.75;1.00;;;;;;;11.97;66.21;99545.45;1751420;80;20904;-78
2022/09/17 06:15:53;;;;;;;1.57;1.05;;;;;;;11.96;66.31;99545.06;1738021;80;20931;-78
2022/09/17 06:18:37;;;;;;;1.80;0.80;;;;;;;11.98;66.32;99554.91;1634296;79;9999751;-78
2022/09/17 06:21:22;;;;;;;0.70;0.70;;;;;;;12.01;66.27;99555.25;1735433;82;20894;-78
2022/09/17 06:24:10;;;;;;;1.45;0.90;;;;;;;12.01;66.33;99559.98;1736264;81;20890;-78
2022/09/17 06:26:54;;;;;;;3.37;1.17;;;;;;;12.03;66.38;99562.52;1742100;81;20899;-78
2022/09/17 06:29:39;;;;;;;1.72;1.20;;;;;;;12.05;66.37;99565.44;1694220;82;180209;-78
2022/09/17 06:32:24;;;;;;;3.02;1.77;;;;;;;12.07;66.46;99566.22;1679748;84;20961;-78
2022/09/17 06:35:09;;;;;;;2.00;1.35;;;;;;;12.07;66.58;99570.56;1702722;84;21085;-78
2022/09/17 06:37:54;;;;;;;3.02;1.90;;;;;;;12.08;66.63;99570.95;1694026;82;21112;-78
2022/09/17 06:40:40;;;;;;;2.58;1.70;;;;;;;12.10;66.58;99573.87;1695055;83;21051;-78
2022/09/17 06:43:25;;;;;;;2.12;1.77;;;;;;;12.12;66.70;99569.93;1692081;82;20929;-78
2022/09/17 06:46:11;;;;;;;2.10;1.57;;;;;;;12.18;66.75;99573.58;1676151;84;20933;-78
2022/09/17 06:48:56;;;;;;;4.07;1.90;;;;;;;12.23;66.76;99574.24;1709251;82;20925;-78
2022/09/17 06:51:40;;;;;;;2.35;1.70;;;;;;;12.27;66.78;99581.00;1712655;82;20897;-78
2022/09/17 06:54:25;;;;;;;2.27;1.75;;;;;;;12.31;66.79;99573.94;1693376;84;20945;-78
2022/09/17 06:57:10;;;;;;;1.85;1.75;;;;;;;12.33;66.85;99572.98;1711207;83;21370;-78
2022/09/17 06:59:55;;;;;;;2.80;2.10;;;;;;;12.35;66.91;99578.94;1688274;84;20908;-78
2022/09/17 07:02:40;;;;;;;2.37;2.12;;;;;;;12.36;66.93;99581.92;1706706;82;20902;-78
2022/09/17 07:05:27;;;;;;;2.10;1.85;;;;;;;12.39;66.97;99583.11;1686547;82;21635;-78
2022/09/17 07:08:12;;;;;;;2.85;2.65;;;;;;;12.43;67.03;99583.38;1694622;83;21465;-78
2022/09/17 07:10:58;;;;;;;4.37;2.83;;;;;;;12.45;67.16;99583.31;1692074;83;20924;-78
2022/09/17 07:13:42;;;;;;;3.17;2.92;;;;;;;12.49;67.24;99584.84;1693265;82;20912;-78
2022/09/17 07:16:31;;;;;;;3.45;2.85;;;;;;;12.56;67.20;99582.40;1684744;84;21472;-78
2022/09/17 07:19:14;;;;;;;3.67;3.25;;;;;;;12.65;67.29;99587.66;1705191;82;21539;-78
2022/09/17 07:21:59;;;;;;;3.12;2.83;;;;;;;12.71;67.36;99581.77;1709758;82;20963;-78
2022/09/17 07:24:44;;;;;;;4.50;3.20;;;;;;;12.78;67.31;99588.40;1697608;84;21805;-78
2022/09/17 07:27:31;;;;;;;3.87;3.17;;;;;;;12.87;67.34;99589.77;1687617;84;20919;-78
2022/09/17 07:30:16;;;;;;;5.50;3.50;;;;;;;12.91;67.29;99590.03;1676604;85;20956;-78
2022/09/17 07:33:01;;;;;;;5.03;3.87;;;;;;;13.01;67.48;99583.52;1686081;83;20892;-78
2022/09/17 07:35:58;;;;;;;4.17;3.77;;;;;;;13.13;67.50;99591.23;1691796;83;21428;-79
2022/09/17 07:38:43;;;;;;;4.25;3.85;;;;;;;13.21;67.48;99591.33;1685768;84;20922;-79
2022/09/17 07:41:28;;;;;;;6.05;4.03;;;;;;;13.27;67.48;99593.27;1691328;84;21485;-79
2022/09/17 07:44:13;;;;;;;3.75;3.45;;;;;;;13.32;67.50;99583.08;1689184;83;21485;-78
2022/09/17 07:46:58;;;;;;;4.00;3.60;;;;;;;13.37;67.54;99582.88;1685611;83;21006;-78
2022/09/17 07:49:43;;;;;;;4.90;3.55;;;;;;;13.44;67.61;99589.04;1687327;84;21027;-77
2022/09/17 07:52:28;;;;;;;3.62;3.33;;;;;;;13.53;67.60;99586.45;1689825;84;21339;-77
2022/09/17 07:55:14;;;;;;;6.72;3.85;;;;;;;13.59;67.62;99583.13;1685536;83;21098;-76
2022/09/17 07:57:59;;;;;;;4.15;3.27;;;;;;;13.59;67.56;99580.53;1688897;83;21129;-77
2022/09/17 08:00:45;;;;;;;4.35;3.80;;;;;;;13.63;67.65;99586.44;1696270;83;21055;-76
2022/09/17 08:03:30;;;;;;;5.60;3.67;;;;;;;13.66;67.69;99582.86;1689830;81;21106;-76
2022/09/17 08:06:20;;;;;;;4.45;3.58;;;;;;;13.77;67.75;99580.16;1692563;82;21077;-76
2022/09/17 08:09:06;;;;;;;3.67;3.33;;;;;;;13.91;67.77;99576.48;1715450;79;21657;-76
2022/09/17 08:11:51;;;;;;;4.08;2.85;;;;;;;14.13;67.81;99576.75;1743248;82;21068;-76
2022/09/17 08:14:36;;;;;;;5.53;3.02;;;;;;;14.38;67.79;99574.67;1734918;80;21016;-76
2022/09/17 08:17:21;;;;;;;4.60;2.98;;;;;;;14.61;67.69;99568.82;1742605;82;21515;-77
2022/09/17 08:20:07;;;;;;;3.72;2.62;;;;;;;14.64;67.65;99570.81;1730419;82;21524;-79
2022/09/17 08:23:00;;;;;;;7.20;3.70;;;;;;;14.69;67.71;99574.03;1741153;81;20886;-79
2022/09/17 08:25:53;;;;;;;3.70;2.60;;;;;;;14.73;67.68;99571.66;1733138;82;20914;-79
2022/09/17 08:28:37;;;;;;;3.67;2.52;;;;;;;14.81;67.81;99566.08;1733782;80;21318;-79
2022/09/17 08:31:28;;;;;;;2.52;2.20;;;;;;;14.87;67.68;99571.81;1734942;82;21366;-79
2022/09/17 08:34:13;;;;;;;3.17;2.33;;;;;;;14.98;67.80;99569.98;1726689;82;21516;-79
2022/09/17 08:36:58;;;;;;;3.20;2.05;;;;;;;15.20;67.79;99574.91;1725818;82;20916;-79
2022/09/17 08:39:43;;;;;;;2.77;2.00;;;;;;;15.31;67.71;99571.28;1742525;82;20885;-79
2022/09/17 08:42:43;;;;;;;3.12;1.70;;;;;;;15.41;67.62;99568.58;1740757;81;20877;-80
2022/09/17 08:45:28;;;;;;;4.90;2.50;;;;;;;15.46;67.64;99567.04;1741703;80;20901;-77
2022/09/17 08:48:17;;;;;;;3.62;1.90;;;;;;;15.51;67.70;99565.87;1726009;80;20921;-77
2022/09/17 08:51:22;;;;;;;3.25;1.95;;;;;;;15.54;67.60;99580.51;1721064;82;20916;-77
2022/09/17 08:54:18;;;;;;;2.40;1.87;;;;;;;15.58;67.67;99567.73;1731451;81;20893;-77
2022/09/17 08:57:26;;;;;;;3.80;1.50;;;;;;;15.72;67.59;99565.20;1724848;82;20909;-77
2022/09/17 09:00:16;;;;;;;2.35;1.45;;;;;;;15.81;67.56;99564.70;1733287;81;20933;-78
2022/09/17 09:03:21;;;;;;;5.58;1.62;;;;;;;15.93;67.56;99567.57;1717632;81;20900;-77
2022/09/17 09:06:07;;;;;;;3.30;1.45;;;;;;;16.06;67.55;99566.81;1736726;81;20964;-77
2022/09/17 09:09:05;;;;;;;2.80;1.47;;;;;;;16.20;67.48;99569.94;1735550;82;20964;-77
2022/09/17 09:11:55;;;;;;;1.67;1.27;;;;;;;16.28;67.41;99567.73;1741819;81;20976;-77
2022/09/17 09:14:59;;;;;;;1.72;1.17;;;;;;;16.31;67.37;99571.48;1741695;80;21012;-78
2022/09/17 09:17:47;;;;;;;1.67;1.20;;;;;;;16.35;67.41;99584.73;1737616;80;21137;-77
2022/09/17 09:20:54;;;;;;;2.60;1.10;;;;;;;16.39;67.15;99581.02;1739401;80;21028;-77
2022/09/17 09:23:57;;;;;;;1.37;1.20;;;;;;;16.45;67.21;99578.53;1739530;80;21086;-77
2022/09/17 09:26:50;;;;;;;2.33;1.00;;;;;;;16.64;67.16;99582.22;1741155;79;21555;-77
2022/09/17 09:29:57;;;;;;;3.10;1.45;;;;;;;16.81;67.14;99584.27;1740154;80;21109;-77
2022/09/17 09:33:12;;;;;;;2.58;1.10;;;;;;;16.95;67.04;99584.77;1739021;82;21040;-77
2022/09/17 09:35:58;;;;;;;2.75;1.07;;;;;;;17.06;66.89;99586.75;1738319;80;21266;-77
2022/09/17 09:39:03;;;;;;;2.17;1.00;;;;;;;17.09;66.82;99583.96;1736774;82;20976;-77
2022/09/17 09:41:59;;;;;;;2.50;0.80;;;;;;;17.08;66.71;99584.42;1728840;81;21075;-76
2022/09/17 09:44:44;;;;;;;;;;;;;;;17.08;66.66;99583.13;1733449;81;21036;-76
2022/09/17 09:47:56;;;;;;;2.08;0.80;;;;;;;17.07;66.26;99581.44;1743304;80;20216;-77
2022/09/17 09:50:56;;;;;;;1.77;1.00;;;;;;;17.09;66.55;99576.97;1737874;79;21026;-77
2022/09/17 09:54:23;;;;;;;3.95;1.10;;;;;;;17.07;66.53;99584.05;1739271;80;21095;-76
2022/09/17 09:57:15;;;;;;;1.92;0.95;;;;;;;17.14;66.56;99591.06;1725619;80;21591;-76
2022/09/17 10:00:41;;;;;;;5.15;0.70;;;;;;;17.14;66.39;99587.98;1741002;81;21639;-76
2022/09/17 10:03:32;;;;;;;1.47;0.75;;;;;;;17.24;66.29;99591.33;1727449;80;21604;-78
2022/09/17 10:06:19;;;;;;;1.40;0.60;;;;;;;17.30;66.19;99590.96;1736304;80;21072;-77
2022/09/17 10:09:09;;;;;;;4.10;0.80;;;;;;;17.39;66.15;99584.72;1730980;80;21080;-77
2022/09/17 10:12:12;;;;;;;1.92;0.60;;;;;;;17.49;66.03;99584.53;1702109;82;21541;-79
2022/09/17 10:15:02;;;;;;;1.20;0.78;;;;;;;17.57;65.94;99578.00;1647153;85;21482;-77
2022/09/17 10:17:48;;;;;;;1.95;0.60;;;;;;;17.53;65.67;99579.50;1646497;86;21236;-77
2022/09/17 10:20:33;;;;;;;1.00;0.70;;;;;;;17.38;65.65;99589.57;1627741;87;21084;-77
2022/09/17 10:23:20;;;;;;;2.08;1.02;;;;;;;17.27;65.62;99593.75;1649777;84;21213;-78
2022/09/17 10:26:05;;;;;;;1.60;1.00;;;;;;;17.19;65.56;99602.89;1641932;87;21627;-76
2022/09/17 10:28:58;;;;;;;4.12;1.17;;;;;;;17.15;65.59;99601.42;1657288;86;21112;-76
2022/09/17 10:31:54;;;;;;;1.72;0.88;;;;;;;17.16;65.54;99605.68;1639734;85;21776;-76
2022/09/17 10:34:42;;;;;;;1.95;0.90;;;;;;;17.11;65.45;99604.30;1655378;84;21103;-76
2022/09/17 10:37:48;;;;;;;5.33;1.10;;;;;;;17.13;65.44;99603.28;1701815;82;21072;-76
2022/09/17 10:40:32;;;;;;;3.22;0.75;;;;;;;17.12;65.34;99596.37;1689875;82;21120;-76
2022/09/17 10:43:22;;;;;;;0.90;0.62;;;;;;;17.08;65.07;99585.73;1702040;82;20993;-76
2022/09/17 10:46:15;;;;;;;1.15;0.68;;;;;;;17.08;65.16;99586.20;1699809;82;21088;-76
2022/09/17 10:49:30;;;;;;;0.98;0.65;;;;;;;17.23;65.27;99582.65;1704881;82;21108;-76
2022/09/17 10:52:26;;;;;;;3.80;0.70;;;;;;;17.37;65.05;99579.21;1715593;82;21068;-76
2022/09/17 10:55:36;;;;;;;1.67;0.85;;;;;;;17.36;64.89;99582.75;1737876;80;27233;-76
2022/09/17 10:58:54;;;;;;;2.05;0.80;;;;;;;17.34;64.82;99588.07;1738940;80;21067;-77
2022/09/17 11:02:02;;;;;;;0.82;0.62;;;;;;;17.25;64.75;99591.23;1737100;81;21167;-76
2022/09/17 11:04:58;;;;;;;2.12;0.60;;;;;;;17.19;64.73;99590.30;1740815;82;21528;-76
2022/09/17 11:07:54;;;;;;;1.55;0.70;;;;;;;17.12;64.60;99589.84;1734878;81;21641;-76
2022/09/17 11:11:02;;;;;;;2.65;0.82;;;;;;;17.06;64.52;99591.52;1740205;82;21060;-76
2022/09/17 11:14:11;;;;;;;1.05;0.55;;;;;;;17.01;64.47;99583.57;1732789;82;21039;-76
2022/09/17 11:17:18;;;;;;;0.33;0.33;;;;;;;16.93;64.41;99582.71;1720618;82;21039;-76
2022/09/17 11:20:24;;;;;;;1.25;0.60;;;;;;;16.87;64.35;99586.52;1727872;82;21412;-76
2022/09/17 11:23:33;;;;;;;1.65;0.60;;;;;;;16.79;64.24;99590.05;1729916;80;21521;-77
2022/09/17 11:26:48;;;;;;;1.85;0.60;;;;;;;16.73;64.23;99587.78;1722606;82;21571;-76
2022/09/17 11:30:20;;;;;;;1.42;0.53;;;;;;;16.74;64.22;99590.77;1741716;80;21587;-77
2022/09/17 11:33:14;;;;;;;1.30;0.50;;;;;;;16.82;64.17;99588.56;1721489;82;20976;-77
2022/09/17 11:36:04;;;;;;;0.85;0.50;;;;;;;16.99;64.08;99591.50;1695012;82;21517;-77
2022/09/17 11:38:52;;;;;;;5.92;0.50;;;;;;;17.12;63.88;99586.39;1683948;82;21492;-78
2022/09/17 11:41:41;;;;;;;1.45;0.47;;;;;;;17.23;63.81;99592.25;1663284;84;20918;-77
2022/09/17 11:44:37;;;;;;;2.30;0.78;;;;;;;17.28;63.69;99592.83;1693492;83;20961;-77
2022/09/17 11:47:32;;;;;;;;;;;;;;;17.23;63.59;99593.09;1707850;83;21013;-77
2022/09/17 11:50:28;;;;;;;1.37;0.53;;;;;;;17.21;63.31;99591.88;1705433;83;20197;-77
2022/09/17 11:53:38;;;;;;;3.87;0.78;;;;;;;17.19;63.49;99598.97;1684709;83;21081;-78
2022/09/17 11:56:45;;;;;;;1.12;0.50;;;;;;;17.09;63.41;99610.92;1674449;83;21090;-77
2022/09/17 11:59:51;;;;;;;2.02;0.57;;;;;;;16.95;63.37;99606.13;1676781;85;21089;-76
2022/09/17 12:02:53;;;;;;;2.97;0.50;;;;;;;16.73;63.29;99603.45;1670397;82;21109;-76
2022/09/17 12:05:51;;;;;;;3.17;0.70;;;;;;;16.59;63.36;99607.77;1685965;84;21028;-76
2022/09/17 12:08:53;;;;;;;2.42;0.60;;;;;;;16.60;63.41;99610.30;1671767;83;21044;-76
2022/09/17 12:12:05;;;;;;;1.80;0.68;;;;;;;16.64;63.47;99605.70;1695077;83;21553;-76
2022/09/17 12:15:03;;;;;;;0.62;0.40;;;;;;;16.70;63.47;99606.23;1722018;82;21004;-77
2022/09/17 12:18:09;;;;;;;2.45;0.37;;;;;;;16.76;63.37;99620.23;1683272;83;21053;-76
2022/09/17 12:20:58;;;;;;;1.80;0.50;;;;;;;16.66;63.23;99615.16;1720842;82;21024;-76
2022/09/17 12:23:48;;;;;;;0.82;0.50;;;;;;;16.58;63.30;99608.70;1718605;81;21076;-75
2022/09/17 12:27:25;;;;;;;21.68;17.15;;;;;;;16.46;63.23;99615.45;1739680;81;21031;-76
2022/09/17 12:30:27;;;;;;;5.75;5.15;;;;;;;16.36;63.21;99619.49;1718634;80;21031;-75
2022/09/17 12:33:39;;;;;;;19.27;11.43;;;;;;;16.17;63.21;99611.38;1725611;80;21067;-78
2022/09/17 12:36:39;;;;;;;36.33;18.65;;;;;;;16.11;63.33;99605.22;1741375;81;21040;-76
2022/09/17 12:39:35;;;;;;;41.48;24.20;;;;;;;16.07;63.38;99603.70;1745022;80;20972;-77
2022/09/17 12:42:41;;;;;;;20.82;11.63;;;;;;;16.07;63.42;99595.88;1743505;80;21488;-75
2022/09/17 12:45:40;;;;;;;3.98;3.40;;;;;;;16.14;63.43;99595.89;1723162;81;21056;-75
2022/09/17 12:48:49;;;;;;;3.55;2.87;;;;;;;16.23;63.44;99594.08;1739514;81;20965;-76
2022/09/17 12:52:03;;;;;;;8.20;6.05;;;;;;;16.38;63.47;99590.24;1734221;81;21115;-77
2022/09/17 12:55:25;;;;;;;3.27;2.10;;;;;;;16.50;63.44;99581.73;1746511;80;21477;-75
2022/09/17 12:59:01;;;;;;;3.70;1.65;;;;;;;16.54;63.42;99583.23;1740781;81;21038;-76
2022/09/17 13:02:04;;;;;;;5.65;1.77;;;;;;;16.53;63.42;99590.22;1746043;80;21122;-77
2022/09/17 13:05:34;;;;;;;1.98;0.80;;;;;;;16.43;63.39;99599.50;1738267;80;21067;-76
2022/09/17 13:08:51;;;;;;;2.87;1.72;;;;;;;16.35;63.37;99606.06;1698350;82;21017;-75
2022/09/17 13:11:57;;;;;;;7.37;1.45;;;;;;;16.25;63.43;99614.86;1676715;84;21522;-76
2022/09/17 13:15:30;;;;;;;3.10;0.62;;;;;;;16.12;63.48;99621.22;1686890;83;21089;-76
2022/09/17 13:18:29;;;;;;;3.67;0.62;;;;;;;15.94;63.60;99613.11;1689488;84;20898;-76
2022/09/17 13:21:25;;;;;;;2.80;0.85;;;;;;;15.83;63.70;99603.27;1682245;84;21121;-76
2022/09/17 13:24:23;;;;;;;;;;;;;;;15.76;63.77;99604.97;1698844;83;21580;-76
2022/09/17 13:27:22;;;;;;;2.85;1.27;;;;;;;15.77;64.27;99599.67;1665327;84;20209;-75
2022/09/17 13:30:10;;;;;;;4.37;1.65;;;;;;;15.74;63.88;99597.70;1690651;84;21556;-75
2022/09/17 13:32:54;;;;;;;2.47;1.22;;;;;;;15.69;63.96;99602.31;1688030;83;21108;-75
2022/09/17 13:35:45;;;;;;;2.60;1.10;;;;;;;15.69;64.10;99599.24;1689780;84;20970;-75
2022/09/17 13:38:35;;;;;;;3.45;0.82;;;;;;;15.71;64.25;99599.16;1692226;84;21168;-75
2022/09/17 13:41:23;;;;;;;4.35;1.60;;;;;;;15.75;64.25;99611.11;1684749;84;21093;-75